Time;durP1;ratioP1;P1;durP2;ratioP2;P2;SDS_P1;SDS_P2;PMS_P1;PMS_P2;Temp;Humidity;BMP_temperature;BMP_pressure;BME280_temperature;BME280_humidity;BME280_pressure;Samples;Min_cycle;Max_cycle;Signal;HPM_P1;HPM_P2
2023/04/21 00:01:07;;;;;;;;;;;;;;;10.51;100.00;100352.22;5590595;31;34374;-69
2023/04/21 00:04:12;;;;;;;;;;;;;;;10.49;100.00;100348.91;5590219;31;34311;-68
2023/04/21 00:07:15;;;;;;;;;;;;;;;10.55;100.00;100341.13;5590195;31;34137;-69
2023/04/21 00:10:17;;;;;;;;;;;;;;;10.53;100.00;100343.09;5590655;31;32707;-69
2023/04/21 00:13:20;;;;;;;;;;;;;;;10.59;100.00;100338.97;5589979;31;34433;-69
2023/04/21 00:16:22;;;;;;;;;;;;;;;10.49;100.00;100333.00;5590105;31;34238;-69
2023/04/21 00:19:25;;;;;;;;;;;;;;;10.54;100.00;100328.84;5590588;31;34121;-69
2023/04/21 00:22:27;;;;;;;;;;;;;;;10.46;100.00;100332.31;5590033;31;34909;-69
2023/04/21 00:25:30;;;;;;;;;;;;;;;10.34;100.00;100336.34;5589986;31;34782;-70
2023/04/21 00:28:32;;;;;;;;;;;;;;;10.31;100.00;100330.53;5590038;31;34931;-69
2023/04/21 00:31:35;;;;;;;;;;;;;;;10.15;100.00;100327.88;5589979;31;34244;-70
2023/04/21 00:34:39;;;;;;;;;;;;;;;10.21;100.00;100333.38;5590265;31;34067;-70
2023/04/21 00:37:41;;;;;;;;;;;;;;;10.29;100.00;100324.56;5589999;31;34947;-69
2023/04/21 00:40:45;;;;;;;;;;;;;;;10.29;100.00;100325.41;5589960;31;34396;-70
2023/04/21 00:44:04;;;;;;;;;;;;;;;10.23;100.00;100326.06;5590109;31;34332;-70
2023/04/21 00:47:07;;;;;;;;;;;;;;;10.17;100.00;100329.38;5575879;31;34114;-69
2023/04/21 00:50:10;;;;;;;;;;;;;;;10.18;100.00;100330.19;5588612;31;34830;-69
2023/04/21 00:53:14;;;;;;;;;;;;;;;10.24;100.00;100332.19;5589799;31;34211;-70
2023/04/21 00:56:17;;;;;;;;;;;;;;;10.15;100.00;100325.22;5589917;31;34121;-69
2023/04/21 00:59:20;;;;;;;;;;;;;;;10.14;100.00;100334.97;5590146;31;34238;-70
2023/04/21 01:02:23;;;;;;;;;;;;;;;10.09;100.00;100331.16;5589741;31;34209;-70
2023/04/21 01:05:26;;;;;;;;;;;;;;;10.00;100.00;100319.75;5589659;31;34767;-70
2023/04/21 01:08:28;;;;;;;;;;;;;;;9.94;100.00;100331.00;5589621;31;34221;-70
2023/04/21 01:11:31;;;;;;;;;;;;;;;9.84;100.00;100323.22;5590022;31;34115;-70
2023/04/21 01:14:38;;;;;;;;;;;;;;;9.77;100.00;100324.87;5589478;31;35040;-70
2023/04/21 01:17:41;;;;;;;;;;;;;;;9.71;100.00;100325.53;5589557;31;34200;-70
2023/04/21 01:20:43;;;;;;;;;;;;;;;9.62;100.00;100318.56;5589490;31;34233;-70
2023/04/21 01:23:46;;;;;;;;;;;;;;;9.65;100.00;100320.88;5589552;31;34115;-70
2023/04/21 01:26:49;;;;;;;;;;;;;;;9.50;100.00;100325.97;5589451;31;34217;-69
2023/04/21 01:29:51;;;;;;;;;;;;;;;9.41;100.00;100316.34;5589514;31;34435;-70
2023/04/21 01:32:53;;;;;;;;;;;;;;;9.34;100.00;100318.00;5589475;31;34057;-70
2023/04/21 01:35:57;;;;;;;;;;;;;;;9.29;100.00;100325.59;5589726;31;34096;-70
2023/04/21 01:39:00;;;;;;;;;;;;;;;9.24;100.00;100319.13;5589277;31;34147;-70
2023/04/21 01:42:04;;;;;;;;;;;;;;;9.20;100.00;100317.78;5589157;31;34117;-70
2023/04/21 01:45:07;;;;;;;;;;;;;;;9.13;100.00;100314.94;5589160;31;34484;-70
2023/04/21 01:48:11;;;;;;;;;;;;;;;9.12;100.00;100315.94;5588906;31;34360;-70
2023/04/21 01:51:14;;;;;;;;;;;;;;;9.14;100.00;100313.97;5589107;31;34135;-70
2023/04/21 01:54:18;;;;;;;;;;;;;;;9.14;100.00;100317.44;5589320;31;34200;-70
2023/04/21 01:57:20;;;;;;;;;;;;;;;9.10;100.00;100310.78;5588960;31;34461;-70
2023/04/21 02:00:25;;;;;;;;;;;;;;;9.07;100.00;100305.81;5589879;31;34116;-70
2023/04/21 02:03:28;;;;;;;;;;;;;;;9.09;100.00;100311.78;5591714;31;34442;-70
2023/04/21 02:06:31;;;;;;;;;;;;;;;9.18;100.00;100314.47;5591277;31;34160;-70
2023/04/21 02:09:34;;;;;;;;;;;;;;;9.30;100.00;100307.87;5591357;31;34802;-70
2023/04/21 02:12:37;;;;;;;;;;;;;;;9.19;100.00;100310.84;5591256;31;34184;-70
2023/04/21 02:15:40;;;;;;;;;;;;;;;9.16;100.00;100317.25;5591114;31;34497;-70
2023/04/21 02:18:43;;;;;;;;;;;;;;;9.16;100.00;100317.25;5591135;31;34376;-70
2023/04/21 02:21:46;;;;;;;;;;;;;;;9.12;100.00;100313.28;5591090;31;34830;-70
2023/04/21 02:24:49;;;;;;;;;;;;;;;9.21;100.00;100314.97;5591132;31;34814;-70
2023/04/21 02:27:53;;;;;;;;;;;;;;;9.16;100.00;100311.97;5591035;31;34431;-70
2023/04/21 02:30:55;;;;;;;;;;;;;;;9.24;100.00;100316.47;5591443;31;34212;-70
2023/04/21 02:33:59;;;;;;;;;;;;;;;9.16;100.00;100314.63;5591470;31;34866;-70
2023/04/21 02:37:02;;;;;;;;;;;;;;;9.05;100.00;100323.66;5591014;31;34292;-70
2023/04/21 02:40:05;;;;;;;;;;;;;;;9.00;100.00;100309.28;5577298;31;34223;-70
2023/04/21 02:43:09;;;;;;;;;;;;;;;8.94;100.00;100316.03;5590668;31;34710;-70
2023/04/21 02:46:11;;;;;;;;;;;;;;;8.92;100.00;100312.69;5590635;31;34586;-70
2023/04/21 02:49:14;;;;;;;;;;;;;;;8.87;100.00;100315.00;5590742;31;34809;-70
2023/04/21 02:52:17;;;;;;;;;;;;;;;8.90;100.00;100319.16;5590885;31;34151;-70
2023/04/21 02:55:21;;;;;;;;;;;;;;;9.18;100.00;100322.41;5590875;31;34217;-70
2023/04/21 02:58:24;;;;;;;;;;;;;;;9.33;100.00;100323.44;5590895;31;34083;-70
2023/04/21 03:01:26;;;;;;;;;;;;;;;9.32;100.00;100317.31;5590862;31;34114;-70
2023/04/21 03:04:28;;;;;;;;;;;;;;;9.39;100.00;100325.47;5590709;31;34864;-70
2023/04/21 03:07:31;;;;;;;;;;;;;;;9.48;100.00;100335.91;5590762;31;34333;-70
2023/04/21 03:10:35;;;;;;;;;;;;;;;9.53;100.00;100328.31;5591102;31;34075;-69
2023/04/21 03:13:38;;;;;;;;;;;;;;;9.48;100.00;100332.44;5590286;31;34749;-70
2023/04/21 03:16:44;;;;;;;;;;;;;;;9.42;100.00;100330.41;5590484;31;34340;-69
2023/04/21 03:19:46;;;;;;;;;;;;;;;9.40;100.00;100329.75;5590630;31;34271;-69
2023/04/21 03:22:51;;;;;;;;;;;;;;;9.43;100.00;100334.72;5590609;31;34311;-69
2023/04/21 03:25:54;;;;;;;;;;;;;;;9.51;100.00;100345.34;5590988;31;34192;-68
2023/04/21 03:28:57;;;;;;;;;;;;;;;9.59;100.00;100340.88;5590508;31;34847;-69
2023/04/21 03:31:59;;;;;;;;;;;;;;;9.55;100.00;100346.66;5590611;31;34830;-69
2023/04/21 03:35:03;;;;;;;;;;;;;;;9.61;100.00;100343.38;5590530;31;34088;-70
2023/04/21 03:38:05;;;;;;;;;;;;;;;9.56;100.00;100348.31;5590578;31;34274;-70
2023/04/21 03:41:09;;;;;;;;;;;;;;;9.38;100.00;100350.28;5576829;31;34221;-70
2023/04/21 03:44:12;;;;;;;;;;;;;;;9.24;100.00;100350.88;5590294;31;34455;-70
2023/04/21 03:47:15;;;;;;;;;;;;;;;9.15;100.00;100350.00;5590090;31;34320;-71
2023/04/21 03:50:17;;;;;;;;;;;;;;;9.08;100.00;100352.47;5590285;31;34362;-70
2023/04/21 03:53:20;;;;;;;;;;;;;;;9.10;100.00;100347.84;5590343;31;34798;-70
2023/04/21 03:56:22;;;;;;;;;;;;;;;9.16;100.00;100352.50;5590354;31;34396;-69
2023/04/21 03:59:25;;;;;;;;;;;;;;;9.19;100.00;100355.81;5590300;31;34169;-69
2023/04/21 04:02:28;;;;;;;;;;;;;;;9.15;100.00;100356.13;5590337;31;34229;-70
2023/04/21 04:05:31;;;;;;;;;;;;;;;9.07;100.00;100364.03;5590257;31;33937;-70
2023/04/21 04:08:33;;;;;;;;;;;;;;;9.01;100.00;100359.37;5590117;31;34343;-70
2023/04/21 04:11:36;;;;;;;;;;;;;;;8.98;100.00;100367.62;5590293;31;34243;-71
2023/04/21 04:14:38;;;;;;;;;;;;;;;8.89;100.00;100368.59;5590089;31;34879;-70
2023/04/21 04:17:41;;;;;;;;;;;;;;;8.79;100.00;100370.50;5590052;31;34950;-71
2023/04/21 04:20:43;;;;;;;;;;;;;;;8.76;100.00;100376.13;5590649;31;34240;-71
2023/04/21 04:23:48;;;;;;;;;;;;;;;8.86;100.00;100378.66;5590018;31;34190;-71
2023/04/21 04:26:52;;;;;;;;;;;;;;;8.91;100.00;100381.62;5590060;31;34225;-71
2023/04/21 04:29:56;;;;;;;;;;;;;;;9.04;100.00;100382.06;5590093;31;34743;-71
2023/04/21 04:32:59;;;;;;;;;;;;;;;9.29;100.00;100385.66;5576254;31;34254;-70
2023/04/21 04:36:01;;;;;;;;;;;;;;;9.35;100.00;100387.62;5589950;31;33864;-70
2023/04/21 04:39:04;;;;;;;;;;;;;;;9.41;100.00;100389.66;5590020;31;34153;-70
2023/04/21 04:42:09;;;;;;;;;;;;;;;9.48;100.00;100393.34;5589752;31;34357;-71
2023/04/21 04:45:12;;;;;;;;;;;;;;;9.55;100.00;100386.37;5589871;31;34302;-70
2023/04/21 04:48:15;;;;;;;;;;;;;;;9.67;100.00;100389.59;5589724;31;33930;-70
2023/04/21 04:51:17;;;;;;;;;;;;;;;9.82;100.00;100390.63;5589781;31;34900;-70
2023/04/21 04:54:20;;;;;;;;;;;;;;;9.91;100.00;100402.87;5589784;31;34213;-70
2023/04/21 04:57:23;;;;;;;;;;;;;;;9.95;100.00;100388.31;5575825;31;34818;-69
2023/04/21 05:00:35;;;;;;;;;;;;;;;9.99;98.75;100385.16;5590089;31;34887;-70
2023/04/21 05:04:24;;;;;;;;;;;;;;;10.02;99.77;100389.31;5566153;31;35998;-71
2023/04/21 05:07:28;;;;;;;;;;;;;;;10.06;98.28;100388.00;5576055;31;34149;-70
2023/04/21 05:10:31;;;;;;;;;;;;;;;10.14;97.84;100382.69;5589583;31;34812;-69
2023/04/21 05:13:34;;;;;;;;;;;;;;;10.19;97.56;100390.19;5589315;31;34160;-69
2023/04/21 05:16:39;;;;;;;;;;;;;;;10.24;96.28;100385.22;5589319;31;34046;-69
2023/04/21 05:19:42;;;;;;;;;;;;;;;10.28;95.79;100394.50;5589369;31;34504;-70
2023/04/21 05:22:44;;;;;;;;;;;;;;;10.35;94.90;100390.19;5588995;31;34864;-69
2023/04/21 05:25:47;;;;;;;;;;;;;;;10.48;94.36;100393.16;5589149;31;34135;-69
2023/04/21 05:28:50;;;;;;;;;;;;;;;10.56;92.43;100390.50;5589252;31;34832;-69
2023/04/21 05:31:56;;;;;;;;;;;;;;;10.71;91.45;100393.31;5589477;31;34275;-69
2023/04/21 05:35:02;;;;;;;;;;;;;;;10.83;88.80;100391.97;5575184;31;34134;-68
2023/04/21 05:38:05;;;;;;;;;;;;;;;10.96;88.16;100381.66;5589107;31;34280;-70
2023/04/21 05:41:08;;;;;;;;;;;;;;;11.08;85.60;100393.56;5589219;31;34816;-68
2023/04/21 05:44:11;;;;;;;;;;;;;;;11.24;82.85;100400.63;5589041;31;34199;-69
2023/04/21 05:47:17;;;;;;;;;;;;;;;11.34;81.53;100395.94;5588521;31;34336;-68
2023/04/21 05:50:20;;;;;;;;;;;;;;;11.46;80.24;100399.06;5575191;31;34341;-68
2023/04/21 05:53:34;;;;;;;;;;;;;;;11.58;78.32;100393.19;5589079;31;34359;-69
2023/04/21 05:56:37;;;;;;;;;;;;;;;11.66;77.50;100403.78;5588845;31;34040;-70
2023/04/21 05:59:42;;;;;;;;;;;;;;;11.87;74.31;100399.69;5588085;31;34176;-70
2023/04/21 06:02:46;;;;;;;;;;;;;;;12.04;72.34;100394.13;5588806;31;34173;-68
2023/04/21 06:05:54;;;;;;;;;;;;;;;12.16;67.52;100402.50;5588646;31;34054;-68
2023/04/21 06:08:57;;;;;;;;;;;;;;;12.19;65.99;100408.31;5574824;31;34340;-68
2023/04/21 06:12:00;;;;;;;;;;;;;;;12.20;65.42;100403.78;5588191;31;34998;-67
2023/04/21 06:15:03;;;;;;;;;;;;;;;12.26;64.78;100400.44;5588404;31;34544;-70
2023/04/21 06:18:06;;;;;;;;;;;;;;;12.37;64.55;100407.16;5588160;31;33517;-68
2023/04/21 06:21:09;;;;;;;;;;;;;;;12.42;64.72;100412.78;5588148;31;34500;-69
2023/04/21 06:24:12;;;;;;;;;;;;;;;12.54;62.69;100409.50;5588021;31;33669;-70
2023/04/21 06:27:14;;;;;;;;;;;;;;;12.62;62.77;100404.13;5588073;31;34269;-69
2023/04/21 06:30:17;;;;;;;;;;;;;;;12.83;61.45;100413.25;5588134;31;34365;-71
2023/04/21 06:33:20;;;;;;;;;;;;;;;13.04;59.93;100413.34;5588007;31;34801;-70
2023/04/21 06:36:22;;;;;;;;;;;;;;;13.21;59.76;100406.06;5587884;31;34298;-70
2023/04/21 06:39:25;;;;;;;;;;;;;;;13.20;59.73;100397.22;5588045;31;34333;-69
2023/04/21 06:42:28;;;;;;;;;;;;;;;13.33;58.61;100408.06;5588301;31;34241;-70
2023/04/21 06:45:30;;;;;;;;;;;;;;;13.46;57.85;100408.22;5573922;31;34676;-69
2023/04/21 06:48:33;;;;;;;;;;;;;;;13.42;57.39;100400.78;5589555;31;34143;-68
2023/04/21 06:51:38;;;;;;;;;;;;;;;13.35;57.61;100405.22;5590503;31;35032;-70
2023/04/21 06:54:40;;;;;;;;;;;;;;;13.84;57.03;100406.25;5590476;31;34177;-68
2023/04/21 06:57:43;;;;;;;;;;;;;;;14.64;53.74;100402.50;5590638;31;34758;-70
2023/04/21 07:00:46;;;;;;;;;;;;;;;14.75;53.37;100412.66;5590810;31;34880;-70
2023/04/21 07:03:52;;;;;;;;;;;;;;;15.12;51.80;100404.28;5590638;31;34141;-71
2023/04/21 07:06:55;;;;;;;;;;;;;;;16.28;49.18;100397.94;5590464;31;34758;-72
2023/04/21 07:09:57;;;;;;;;;;;;;;;16.14;48.76;100404.31;5590611;31;34332;-70
2023/04/21 07:13:00;;;;;;;;;;;;;;;17.28;45.84;100402.22;5590662;31;34958;-70
2023/04/21 07:16:03;;;;;;;;;;;;;;;16.10;46.85;100400.38;5590779;31;34120;-71
2023/04/21 07:19:05;;;;;;;;;;;;;;;15.75;48.17;100399.66;5590556;31;34836;-71
2023/04/21 07:22:08;;;;;;;;;;;;;;;16.64;46.73;100394.91;5576682;31;34828;-70
2023/04/21 07:25:11;;;;;;;;;;;;;;;17.42;45.34;100401.16;5590298;31;34648;-71
2023/04/21 07:28:14;;;;;;;;;;;;;;;17.02;45.61;100394.25;5590246;31;34249;-70
2023/04/21 07:31:17;;;;;;;;;;;;;;;16.65;45.75;100399.25;5590298;31;34960;-71
2023/04/21 07:34:20;;;;;;;;;;;;;;;16.71;46.07;100397.56;5590242;31;34868;-71
2023/04/21 07:37:22;;;;;;;;;;;;;;;17.45;44.90;100392.66;5590234;31;34088;-70
2023/04/21 07:40:26;;;;;;;;;;;;;;;17.52;44.06;100392.66;5590441;31;34127;-70
2023/04/21 07:43:30;;;;;;;;;;;;;;;18.96;42.09;100398.94;5576418;31;34846;-70
2023/04/21 07:46:32;;;;;;;;;;;;;;;17.68;43.69;100398.38;5590105;31;34837;-70
2023/04/21 07:49:35;;;;;;;;;;;;;;;17.81;42.25;100395.63;5589995;31;34690;-69
2023/04/21 07:52:37;;;;;;;;;;;;;;;18.18;42.10;100396.66;5589853;31;34372;-70
2023/04/21 07:55:40;;;;;;;;;;;;;;;18.51;40.69;100400.97;5590386;31;34303;-69
2023/04/21 07:58:42;;;;;;;;;;;;;;;18.98;40.82;100402.22;5589554;31;34796;-70
2023/04/21 08:01:45;;;;;;;;;;;;;;;20.22;37.78;100393.69;5590128;31;34255;-70
2023/04/21 08:04:48;;;;;;;;;;;;;;;18.69;39.13;100394.88;5589895;31;34688;-69
2023/04/21 08:07:50;;;;;;;;;;;;;;;18.49;39.28;100385.06;5575923;31;34442;-70
2023/04/21 08:10:55;;;;;;;;;;;;;;;18.54;39.14;100390.63;5589978;31;34090;-69
2023/04/21 08:13:57;;;;;;;;;;;;;;;19.77;37.61;100393.28;5589966;31;34839;-69
2023/04/21 08:17:01;;;;;;;;;;;;;;;19.47;37.38;100395.94;5590034;31;34139;-69
2023/04/21 08:20:04;;;;;;;;;;;;;;;19.38;37.67;100387.31;5590067;31;33082;-70
2023/04/21 08:23:07;;;;;;;;;;;;;;;19.21;37.63;100391.66;5589773;31;34479;-70
2023/04/21 08:26:09;;;;;;;;;;;;;;;21.49;34.96;100392.94;5589921;31;34899;-71
2023/04/21 08:29:17;;;;;;;;;;;;;;;20.99;35.03;100386.41;5589887;31;34090;-70
2023/04/21 08:32:23;;;;;;;;;;;;;;;21.80;34.48;100388.12;5590077;31;32834;-70
2023/04/21 08:35:26;;;;;;;;;;;;;;;20.80;34.88;100383.84;5589844;31;34770;-73
2023/04/21 08:38:28;;;;;;;;;;;;;;;21.85;34.00;100380.94;5589612;31;34278;-71
2023/04/21 08:41:31;;;;;;;;;;;;;;;21.96;32.71;100382.81;5589863;31;35045;-71
2023/04/21 08:44:36;;;;;;;;;;;;;;;23.91;30.16;100388.94;5589728;31;34289;-71
2023/04/21 08:47:39;;;;;;;;;;;;;;;23.81;30.26;100382.34;5589910;31;33729;-70
2023/04/21 08:50:43;;;;;;;;;;;;;;;22.37;30.16;100381.62;5589720;31;34825;-71
2023/04/21 08:53:45;;;;;;;;;;;;;;;22.27;32.00;100375.25;5589597;31;35018;-69
2023/04/21 08:56:48;;;;;;;;;;;;;;;21.76;32.16;100382.38;5589603;31;34785;-71
2023/04/21 08:59:51;;;;;;;;;;;;;;;24.01;29.26;100373.59;5589611;31;34783;-70
2023/04/21 09:03:11;;;;;;;;;;;;;;;24.79;27.93;100365.84;5589598;31;34763;-70
2023/04/21 09:06:40;;;;;;;;;;;;;;;25.53;27.13;100364.66;5589524;31;33999;-71
2023/04/21 09:09:52;;;;;;;;;;;;;;;24.69;28.21;100359.28;5588454;31;32613;-70
2023/04/21 09:12:55;;;;;;;;;;;;;;;24.58;28.14;100373.88;5589391;31;34365;-71
2023/04/21 09:15:58;;;;;;;;;;;;;;;20.92;31.92;100367.62;5589461;31;34291;-71
2023/04/21 09:19:01;;;;;;;;;;;;;;;21.97;31.76;100368.25;5575668;31;34100;-69
2023/04/21 09:22:03;;;;;;;;;;;;;;;20.69;32.80;100370.34;5589585;31;34863;-70
2023/04/21 09:25:06;;;;;;;;;;;;;;;21.21;33.18;100361.28;5588891;31;34070;-70
2023/04/21 09:28:09;;;;;;;;;;;;;;;20.97;32.81;100356.97;5589258;31;34408;-70
2023/04/21 09:31:15;;;;;;;;;;;;;;;20.28;34.20;100361.22;5575577;31;34029;-70
2023/04/21 09:34:19;;;;;;;;;;;;;;;20.94;33.15;100348.53;5588962;31;34909;-70
2023/04/21 09:37:23;;;;;;;;;;;;;;;19.98;34.82;100347.00;5575210;31;34068;-70
2023/04/21 09:40:27;;;;;;;;;;;;;;;20.57;33.59;100346.09;5589065;31;34512;-70
2023/04/21 09:43:31;;;;;;;;;;;;;;;19.95;34.99;100337.50;5588901;31;34839;-71
2023/04/21 09:46:35;;;;;;;;;;;;;;;22.60;31.86;100342.81;5588778;31;34273;-70
2023/04/21 09:49:43;;;;;;;;;;;;;;;22.15;31.65;100339.34;5588887;31;34173;-71
2023/04/21 09:52:48;;;;;;;;;;;;;;;21.82;32.65;100324.72;5589130;31;34200;-71
2023/04/21 09:55:55;;;;;;;;;;;;;;;21.87;32.88;100332.09;5589432;31;34683;-71
2023/04/21 09:59:00;;;;;;;;;;;;;;;21.68;31.92;100317.97;5588618;31;34040;-69
2023/04/21 10:02:06;;;;;;;;;;;;;;;21.50;32.72;100310.88;5575431;31;34862;-71
2023/04/21 10:05:11;;;;;;;;;;;;;;;20.87;34.79;100312.75;5579472;31;34096;-71
2023/04/21 10:08:15;;;;;;;;;;;;;;;20.88;33.66;100317.94;5588642;31;34441;-69
2023/04/21 10:11:18;;;;;;;;;;;;;;;20.03;35.53;100314.00;5588753;31;34206;-70
2023/04/21 10:14:21;;;;;;;;;;;;;;;20.17;35.27;100310.03;5574870;31;34090;-70
2023/04/21 10:17:25;;;;;;;;;;;;;;;20.19;34.63;100313.31;5588768;31;34707;-70
2023/04/21 10:20:29;;;;;;;;;;;;;;;19.38;36.21;100306.59;5588641;31;34877;-71
2023/04/21 10:23:43;;;;;;;;;;;;;;;19.93;36.71;100301.94;5591057;31;34129;-68
2023/04/21 10:26:46;;;;;;;;;;;;;;;19.26;36.95;100312.97;5576797;31;34442;-68
2023/04/21 10:29:49;;;;;;;;;;;;;;;19.08;37.88;100305.72;5590993;31;34257;-70
2023/04/21 10:33:03;;;;;;;;;;;;;;;19.39;37.18;100299.34;5591375;31;34201;-71
2023/04/21 10:36:10;;;;;;;;;;;;;;;19.66;36.97;100310.59;5590739;31;34228;-71
2023/04/21 10:39:32;;;;;;;;;;;;;;;18.50;38.70;100303.41;5590533;31;34136;-70
2023/04/21 10:42:35;;;;;;;;;;;;;;;22.17;33.49;100300.25;5590397;31;34797;-69
2023/04/21 10:45:39;;;;;;;;;;;;;;;23.69;30.93;100292.28;5590479;31;34206;-71
2023/04/21 10:48:50;;;;;;;;;;;;;;;24.14;29.07;100291.87;5590676;31;33964;-70
2023/04/21 10:51:56;;;;;;;;;;;;;;;24.49;28.46;100291.37;5564073;31;33344;-71
2023/04/21 10:54:59;;;;;;;;;;;;;;;22.24;32.03;100278.44;5577040;31;34209;-69
2023/04/21 10:58:06;;;;;;;;;;;;;;;22.99;30.33;100286.03;5591937;31;34429;-68
2023/04/21 11:01:11;;;;;;;;;;;;;;;23.08;30.62;100288.06;5591016;31;34057;-70
2023/04/21 11:04:18;;;;;;;;;;;;;;;24.71;28.73;100274.13;5590604;31;34156;-71
2023/04/21 11:07:21;;;;;;;;;;;;;;;26.72;26.98;100283.75;5590701;31;33790;-70
2023/04/21 11:10:26;;;;;;;;;;;;;;;27.53;25.10;100284.25;5590648;31;34439;-71
2023/04/21 11:13:32;;;;;;;;;;;;;;;26.17;26.56;100271.81;5590408;31;34876;-69
2023/04/21 11:16:36;;;;;;;;;;;;;;;23.53;29.46;100268.81;5590700;31;34349;-69
2023/04/21 11:19:40;;;;;;;;;;;;;;;22.39;30.78;100271.37;5590607;31;34284;-70
2023/04/21 11:22:42;;;;;;;;;;;;;;;21.34;33.24;100268.47;5590778;31;34356;-71
2023/04/21 11:25:46;;;;;;;;;;;;;;;21.24;33.40;100263.72;5590595;31;34066;-71
2023/04/21 11:28:52;;;;;;;;;;;;;;;21.11;33.86;100266.63;5590130;31;34579;-70
2023/04/21 11:31:54;;;;;;;;;;;;;;;20.80;34.85;100262.50;5576675;31;34236;-70
2023/04/21 11:34:57;;;;;;;;;;;;;;;20.60;34.44;100262.06;5589580;31;34203;-71
2023/04/21 11:38:03;;;;;;;;;;;;;;;19.61;36.51;100245.88;5590379;31;34177;-70
2023/04/21 11:41:06;;;;;;;;;;;;;;;19.37;36.54;100261.09;5590410;31;34103;-70
2023/04/21 11:44:10;;;;;;;;;;;;;;;19.28;37.01;100255.22;5589914;31;34119;-71
2023/04/21 11:47:16;;;;;;;;;;;;;;;19.77;36.94;100251.44;5590060;31;34903;-72
2023/04/21 11:50:29;;;;;;;;;;;;;;;19.80;35.71;100250.16;5590189;31;34322;-70
2023/04/21 11:53:31;;;;;;;;;;;;;;;20.39;34.66;100250.00;5590060;31;34129;-70
2023/04/21 11:56:38;;;;;;;;;;;;;;;21.24;33.55;100246.69;5589851;31;34190;-70
2023/04/21 11:59:40;;;;;;;;;;;;;;;24.63;30.99;100249.12;5589919;31;34394;-71
2023/04/21 12:02:43;;;;;;;;;;;;;;;26.99;26.34;100262.44;5590147;31;34222;-71
2023/04/21 12:05:54;;;;;;;;;;;;;;;25.58;27.22;100249.78;5590093;31;34096;-71
2023/04/21 12:09:01;;;;;;;;;;;;;;;26.48;26.65;100239.97;5576423;31;34889;-70
2023/04/21 12:12:05;;;;;;;;;;;;;;;26.17;26.62;100238.38;5590132;31;34383;-70
2023/04/21 12:15:11;;;;;;;;;;;;;;;23.62;29.34;100242.94;5576655;31;34139;-70
2023/04/21 12:18:16;;;;;;;;;;;;;;;25.46;28.02;100235.62;5590023;31;34208;-70
2023/04/21 12:21:29;;;;;;;;;;;;;;;24.37;28.46;100238.38;5590004;31;34304;-71
2023/04/21 12:24:31;;;;;;;;;;;;;;;22.42;30.38;100230.31;5590052;31;34120;-71
2023/04/21 12:27:46;;;;;;;;;;;;;;;21.01;32.05;100228.66;5590057;31;34370;-70
2023/04/21 12:30:49;;;;;;;;;;;;;;;21.28;32.95;100228.13;5589653;31;35246;-71
2023/04/21 12:33:51;;;;;;;;;;;;;;;20.94;33.73;100214.50;5590424;31;34246;-71
2023/04/21 12:36:54;;;;;;;;;;;;;;;20.46;33.71;100224.81;5589829;31;34167;-71
2023/04/21 12:39:57;;;;;;;;;;;;;;;20.33;34.50;100223.19;5589934;31;34252;-70
2023/04/21 12:43:00;;;;;;;;;;;;;;;19.66;35.58;100219.09;5589906;31;34571;-71
2023/04/21 12:46:03;;;;;;;;;;;;;;;19.21;36.00;100218.72;5589448;31;34829;-70
2023/04/21 12:49:10;;;;;;;;;;;;;;;18.97;37.01;100217.78;5589626;31;34089;-72
2023/04/21 12:52:13;;;;;;;;;;;;;;;18.83;36.83;100213.63;5563099;31;34068;-70
2023/04/21 12:55:16;;;;;;;;;;;;;;;18.63;37.90;100212.00;5575983;31;34264;-70
2023/04/21 12:58:19;;;;;;;;;;;;;;;18.64;37.54;100213.59;5589654;31;33680;-70
2023/04/21 13:01:21;;;;;;;;;;;;;;;19.14;37.33;100223.34;5589684;31;34452;-72
2023/04/21 13:04:24;;;;;;;;;;;;;;;19.31;36.11;100208.22;5589653;31;34142;-71
2023/04/21 13:07:30;;;;;;;;;;;;;;;19.14;36.17;100202.66;5589931;31;34399;-70
2023/04/21 13:10:32;;;;;;;;;;;;;;;18.97;37.04;100207.03;5589410;31;34858;-69
2023/04/21 13:13:35;;;;;;;;;;;;;;;18.57;36.72;100204.81;5589288;31;34137;-70
2023/04/21 13:16:37;;;;;;;;;;;;;;;18.87;37.45;100204.88;5589579;31;34777;-71
2023/04/21 13:19:42;;;;;;;;;;;;;;;19.09;37.14;100206.03;5589433;31;34761;-70
2023/04/21 13:22:45;;;;;;;;;;;;;;;18.98;37.97;100197.88;5589419;31;34198;-70
2023/04/21 13:25:49;;;;;;;;;;;;;;;18.72;37.55;100199.06;5589749;31;34885;-70
2023/04/21 13:28:52;;;;;;;;;;;;;;;18.46;37.24;100194.78;5589460;31;34227;-71
2023/04/21 13:31:55;;;;;;;;;;;;;;;18.47;37.30;100206.34;5589110;31;34404;-71
2023/04/21 13:34:57;;;;;;;;;;;;;;;18.81;36.99;100191.50;5587983;31;34337;-72
2023/04/21 13:38:05;;;;;;;;;;;;;;;19.13;36.47;100195.63;5587764;31;34859;-73
2023/04/21 13:41:07;;;;;;;;;;;;;;;18.93;37.57;100190.50;5589058;31;34573;-72
2023/04/21 13:44:10;;;;;;;;;;;;;;;19.36;37.57;100193.03;5588918;31;34078;-73
2023/04/21 13:47:13;;;;;;;;;;;;;;;19.43;37.12;100196.44;5589069;31;34163;-72
2023/04/21 13:50:17;;;;;;;;;;;;;;;18.71;37.83;100180.47;5588767;31;34880;-73
2023/04/21 13:53:20;;;;;;;;;;;;;;;19.14;38.00;100186.50;5588875;31;34860;-71
2023/04/21 13:56:23;;;;;;;;;;;;;;;19.32;36.68;100180.25;5590775;31;34811;-71
2023/04/21 13:59:25;;;;;;;;;;;;;;;19.16;36.70;100186.28;5595190;31;34754;-72
2023/04/21 14:02:28;;;;;;;;;;;;;;;19.40;37.03;100178.06;5595107;31;34454;-71
2023/04/21 14:05:32;;;;;;;;;;;;;;;19.12;36.56;100185.94;5594729;31;34857;-72
2023/04/21 14:08:35;;;;;;;;;;;;;;;19.06;36.49;100170.72;5581153;31;34094;-71
2023/04/21 14:11:38;;;;;;;;;;;;;;;19.64;36.06;100167.38;5594586;31;34828;-75
2023/04/21 14:14:41;;;;;;;;;;;;;;;19.92;35.72;100165.66;5581110;31;34080;-74
2023/04/21 14:17:43;;;;;;;;;;;;;;;20.57;33.80;100162.00;5594833;31;34197;-72
2023/04/21 14:20:46;;;;;;;;;;;;;;;20.47;34.40;100151.81;5594820;31;34185;-73
2023/04/21 14:23:49;;;;;;;;;;;;;;;20.29;34.65;100160.81;5594877;31;34701;-72
2023/04/21 14:26:52;;;;;;;;;;;;;;;19.97;34.65;100146.09;5594475;31;34751;-73
2023/04/21 14:29:59;;;;;;;;;;;;;;;19.99;35.76;100145.87;5594708;31;34883;-72
2023/04/21 14:33:06;;;;;;;;;;;;;;;20.12;35.00;100156.41;5580813;31;35028;-73
2023/04/21 14:36:10;;;;;;;;;;;;;;;19.77;35.66;100148.31;5594079;31;34419;-71
2023/04/21 14:39:12;;;;;;;;;;;;;;;20.01;34.77;100146.44;5594266;31;34157;-72
2023/04/21 14:42:15;;;;;;;;;;;;;;;20.13;34.17;100144.56;5580877;31;33041;-72
2023/04/21 14:45:18;;;;;;;;;;;;;;;20.02;34.33;100143.53;5573357;31;236125;-72
2023/04/21 14:48:22;;;;;;;;;;;;;;;19.63;34.94;100136.97;5594324;31;34868;-72
2023/04/21 14:51:25;;;;;;;;;;;;;;;19.50;35.65;100142.56;5580332;31;34802;-72
2023/04/21 14:54:29;;;;;;;;;;;;;;;19.48;35.99;100139.28;5594560;31;32897;-71
2023/04/21 14:57:40;;;;;;;;;;;;;;;19.28;36.27;100141.41;5581342;31;34290;-72
2023/04/21 15:00:43;;;;;;;;;;;;;;;19.67;35.36;100137.31;5594170;31;34389;-71
2023/04/21 15:03:47;;;;;;;;;;;;;;;19.04;35.61;100141.34;5594061;31;34968;-71
2023/04/21 15:06:51;;;;;;;;;;;;;;;19.03;36.52;100138.87;5593984;31;34128;-71
2023/04/21 15:09:54;;;;;;;;;;;;;;;19.12;36.35;100129.47;5589758;31;34203;-71
2023/04/21 15:12:57;;;;;;;;;;;;;;;18.72;37.03;100129.19;5590481;31;34198;-71
2023/04/21 15:16:00;;;;;;;;;;;;;;;18.39;37.16;100124.22;5590313;31;34198;-71
2023/04/21 15:19:03;;;;;;;;;;;;;;;18.08;37.96;100124.34;5590528;31;34037;-72
2023/04/21 15:22:06;;;;;;;;;;;;;;;18.12;37.63;100118.28;5590510;31;34241;-72
2023/04/21 15:25:09;;;;;;;;;;;;;;;18.30;37.28;100120.16;5590227;31;34700;-71
2023/04/21 15:28:13;;;;;;;;;;;;;;;18.33;38.72;100114.34;5590164;31;34220;-71
2023/04/21 15:31:16;;;;;;;;;;;;;;;18.32;38.11;100122.63;5589999;31;34241;-72
2023/04/21 15:34:18;;;;;;;;;;;;;;;18.32;37.75;100118.06;5563319;31;33239;-72
2023/04/21 15:37:22;;;;;;;;;;;;;;;18.15;38.72;100111.69;5589419;31;34843;-72
2023/04/21 15:40:28;;;;;;;;;;;;;;;17.99;37.52;100118.44;5589322;31;34091;-71
2023/04/21 15:43:30;;;;;;;;;;;;;;;18.19;38.71;100116.38;5589884;31;35119;-72